METAR Data
IDs: Format: Raw Decoded Include TAF

Data at: 0312 UTC 25 Feb 2021

KHDE 250255Z AUTO 18003KT 10SM CLR 00/M04 A3030 RMK AO2 T00021040